sensor_id;sensor_type;location;lat;lon;timestamp;pressure;altitude;pressure_sealevel;temperature;humidity
31595;BME280;18200;48.726;8.892;2022-10-16T00:01:11;96607.34;;;30.95;34.84
31595;BME280;18200;48.726;8.892;2022-10-16T00:05:11;96616.91;;;30.62;35.41
31595;BME280;18200;48.726;8.892;2022-10-16T00:09:12;96608.50;;;30.51;35.46
31595;BME280;18200;48.726;8.892;2022-10-16T00:13:12;96622.72;;;30.64;35.74
31595;BME280;18200;48.726;8.892;2022-10-16T00:17:12;96623.72;;;30.61;35.25
31595;BME280;18200;48.726;8.892;2022-10-16T00:21:16;96615.66;;;30.63;35.23
31595;BME280;18200;48.726;8.892;2022-10-16T00:25:17;96618.97;;;30.99;34.99
31595;BME280;18200;48.726;8.892;2022-10-16T00:29:17;96628.06;;;30.94;34.82
31595;BME280;18200;48.726;8.892;2022-10-16T00:33:18;96627.63;;;31.06;34.82
31595;BME280;18200;48.726;8.892;2022-10-16T00:37:18;96623.41;;;29.88;36.81
31595;BME280;18200;48.726;8.892;2022-10-16T00:41:19;96627.41;;;29.47;37.72
31595;BME280;18200;48.726;8.892;2022-10-16T00:45:19;96615.22;;;29.39;37.89
31595;BME280;18200;48.726;8.892;2022-10-16T00:49:20;96624.50;;;29.36;37.33
31595;BME280;18200;48.726;8.892;2022-10-16T00:53:21;96636.50;;;29.47;38.01
31595;BME280;18200;48.726;8.892;2022-10-16T00:57:22;96635.44;;;29.45;37.81
31595;BME280;18200;48.726;8.892;2022-10-16T01:01:23;96627.38;;;30.27;36.21
31595;BME280;18200;48.726;8.892;2022-10-16T01:05:25;96640.44;;;29.26;38.59
31595;BME280;18200;48.726;8.892;2022-10-16T01:09:50;96644.44;;;28.61;39.30
31595;BME280;18200;48.726;8.892;2022-10-16T01:13:58;96646.75;;;29.27;38.65
31595;BME280;18200;48.726;8.892;2022-10-16T01:18:20;96641.31;;;29.52;37.76
31595;BME280;18200;48.726;8.892;2022-10-16T01:22:25;96637.53;;;29.00;38.18
31595;BME280;18200;48.726;8.892;2022-10-16T01:26:36;96644.28;;;28.41;39.86
31595;BME280;18200;48.726;8.892;2022-10-16T01:30:43;96639.50;;;29.14;38.89
31595;BME280;18200;48.726;8.892;2022-10-16T01:34:51;96634.91;;;29.11;38.59
31595;BME280;18200;48.726;8.892;2022-10-16T01:38:56;96628.97;;;29.33;37.67
31595;BME280;18200;48.726;8.892;2022-10-16T01:43:22;96632.88;;;28.92;38.37
31595;BME280;18200;48.726;8.892;2022-10-16T01:47:26;96622.50;;;29.36;38.42
31595;BME280;18200;48.726;8.892;2022-10-16T01:51:28;96617.56;;;29.46;37.65
31595;BME280;18200;48.726;8.892;2022-10-16T01:55:33;96621.00;;;29.21;38.62
31595;BME280;18200;48.726;8.892;2022-10-16T01:59:40;96624.66;;;29.47;38.32
31595;BME280;18200;48.726;8.892;2022-10-16T02:03:42;96624.22;;;29.34;38.14
31595;BME280;18200;48.726;8.892;2022-10-16T02:07:44;96637.09;;;29.37;37.93
31595;BME280;18200;48.726;8.892;2022-10-16T02:11:44;96639.59;;;29.55;36.71
31595;BME280;18200;48.726;8.892;2022-10-16T02:15:45;96633.91;;;29.44;37.50
31595;BME280;18200;48.726;8.892;2022-10-16T02:19:48;96624.53;;;29.56;37.23
31595;BME280;18200;48.726;8.892;2022-10-16T02:23:55;96619.38;;;30.09;36.41
31595;BME280;18200;48.726;8.892;2022-10-16T02:28:16;96616.19;;;30.16;36.12
31595;BME280;18200;48.726;8.892;2022-10-16T02:32:21;96619.78;;;29.42;37.84
31595;BME280;18200;48.726;8.892;2022-10-16T02:36:23;96613.19;;;29.74;36.79
31595;BME280;18200;48.726;8.892;2022-10-16T02:40:25;96624.63;;;29.67;37.30
31595;BME280;18200;48.726;8.892;2022-10-16T02:44:26;96627.09;;;29.79;36.95
31595;BME280;18200;48.726;8.892;2022-10-16T02:48:26;96629.63;;;30.03;36.64
31595;BME280;18200;48.726;8.892;2022-10-16T02:52:27;96641.25;;;29.67;36.91
31595;BME280;18200;48.726;8.892;2022-10-16T02:56:27;96638.13;;;29.94;36.18
31595;BME280;18200;48.726;8.892;2022-10-16T03:00:28;96635.94;;;30.04;36.25
31595;BME280;18200;48.726;8.892;2022-10-16T03:04:28;96637.53;;;29.90;36.70
31595;BME280;18200;48.726;8.892;2022-10-16T03:08:29;96631.13;;;30.24;36.02
31595;BME280;18200;48.726;8.892;2022-10-16T03:12:30;96631.13;;;30.44;35.94
31595;BME280;18200;48.726;8.892;2022-10-16T03:16:31;96639.22;;;30.02;36.71
31595;BME280;18200;48.726;8.892;2022-10-16T03:20:31;96639.34;;;29.73;36.87
31595;BME280;18200;48.726;8.892;2022-10-16T03:24:31;96648.63;;;30.10;36.94
31595;BME280;18200;48.726;8.892;2022-10-16T03:28:32;96646.00;;;30.01;36.92
31595;BME280;18200;48.726;8.892;2022-10-16T03:32:32;96649.25;;;30.20;36.50
31595;BME280;18200;48.726;8.892;2022-10-16T03:36:33;96644.88;;;30.13;36.80
31595;BME280;18200;48.726;8.892;2022-10-16T03:40:33;96653.22;;;29.38;37.50
31595;BME280;18200;48.726;8.892;2022-10-16T03:44:33;96654.28;;;29.61;37.53
31595;BME280;18200;48.726;8.892;2022-10-16T03:48:34;96654.22;;;29.55;37.31
31595;BME280;18200;48.726;8.892;2022-10-16T03:52:34;96655.78;;;29.76;37.13
31595;BME280;18200;48.726;8.892;2022-10-16T03:56:35;96652.06;;;29.65;37.65
31595;BME280;18200;48.726;8.892;2022-10-16T04:00:35;96660.63;;;29.47;37.36
31595;BME280;18200;48.726;8.892;2022-10-16T04:04:36;96657.78;;;29.41;37.60
31595;BME280;18200;48.726;8.892;2022-10-16T04:08:36;96651.22;;;29.59;37.33
31595;BME280;18200;48.726;8.892;2022-10-16T04:12:37;96646.06;;;29.32;37.85
31595;BME280;18200;48.726;8.892;2022-10-16T04:16:37;96652.22;;;29.56;38.14
31595;BME280;18200;48.726;8.892;2022-10-16T04:20:37;96645.75;;;29.44;37.85
31595;BME280;18200;48.726;8.892;2022-10-16T04:24:38;96642.59;;;29.17;38.12
31595;BME280;18200;48.726;8.892;2022-10-16T04:28:38;96643.28;;;29.66;37.46
31595;BME280;18200;48.726;8.892;2022-10-16T04:32:39;96646.09;;;29.52;37.27
31595;BME280;18200;48.726;8.892;2022-10-16T04:36:40;96656.22;;;29.05;37.80
31595;BME280;18200;48.726;8.892;2022-10-16T04:40:42;96659.19;;;29.51;37.87
31595;BME280;18200;48.726;8.892;2022-10-16T04:44:42;96665.63;;;29.13;38.79
31595;BME280;18200;48.726;8.892;2022-10-16T04:48:42;96677.63;;;29.20;38.06
31595;BME280;18200;48.726;8.892;2022-10-16T04:52:43;96682.91;;;29.72;37.04
31595;BME280;18200;48.726;8.892;2022-10-16T04:56:43;96687.28;;;29.79;37.05
31595;BME280;18200;48.726;8.892;2022-10-16T05:00:47;96693.31;;;29.98;36.51
31595;BME280;18200;48.726;8.892;2022-10-16T05:04:47;96687.84;;;30.23;36.51
31595;BME280;18200;48.726;8.892;2022-10-16T05:08:48;96676.75;;;29.83;36.23
31595;BME280;18200;48.726;8.892;2022-10-16T05:12:48;96675.47;;;29.64;36.61
31595;BME280;18200;48.726;8.892;2022-10-16T05:16:48;96678.31;;;29.35;37.35
31595;BME280;18200;48.726;8.892;2022-10-16T05:20:49;96682.41;;;29.39;37.74
31595;BME280;18200;48.726;8.892;2022-10-16T05:24:50;96680.91;;;29.73;36.58
31595;BME280;18200;48.726;8.892;2022-10-16T05:28:50;96695.63;;;29.30;36.86
31595;BME280;18200;48.726;8.892;2022-10-16T05:32:51;96688.72;;;29.40;37.26
31595;BME280;18200;48.726;8.892;2022-10-16T05:36:51;96694.03;;;29.58;37.20
31595;BME280;18200;48.726;8.892;2022-10-16T05:40:52;96691.78;;;29.42;36.83
31595;BME280;18200;48.726;8.892;2022-10-16T05:44:53;96703.50;;;29.71;36.89
31595;BME280;18200;48.726;8.892;2022-10-16T05:48:53;96701.63;;;29.63;36.78
31595;BME280;18200;48.726;8.892;2022-10-16T05:52:54;96708.75;;;29.49;36.87
31595;BME280;18200;48.726;8.892;2022-10-16T05:56:54;96726.66;;;29.54;36.82
31595;BME280;18200;48.726;8.892;2022-10-16T06:00:56;96724.03;;;29.45;37.24
31595;BME280;18200;48.726;8.892;2022-10-16T06:04:56;96726.44;;;29.72;36.60
31595;BME280;18200;48.726;8.892;2022-10-16T06:08:57;96729.97;;;29.38;36.71
31595;BME280;18200;48.726;8.892;2022-10-16T06:12:57;96720.97;;;29.13;37.47
31595;BME280;18200;48.726;8.892;2022-10-16T06:16:58;96736.00;;;29.22;37.45
31595;BME280;18200;48.726;8.892;2022-10-16T06:20:58;96711.06;;;29.36;36.80
31595;BME280;18200;48.726;8.892;2022-10-16T06:24:59;96720.22;;;29.42;37.18
31595;BME280;18200;48.726;8.892;2022-10-16T06:28:59;96728.84;;;29.00;37.28
31595;BME280;18200;48.726;8.892;2022-10-16T06:33:00;96735.44;;;29.18;37.76
31595;BME280;18200;48.726;8.892;2022-10-16T06:37:00;96746.72;;;29.63;37.22
31595;BME280;18200;48.726;8.892;2022-10-16T06:41:01;96754.22;;;29.92;36.61
31595;BME280;18200;48.726;8.892;2022-10-16T06:45:01;96751.78;;;30.00;36.58
31595;BME280;18200;48.726;8.892;2022-10-16T06:49:02;96750.72;;;30.32;35.72
31595;BME280;18200;48.726;8.892;2022-10-16T06:53:02;96762.75;;;29.74;36.34
31595;BME280;18200;48.726;8.892;2022-10-16T06:57:02;96769.09;;;29.60;36.99
31595;BME280;18200;48.726;8.892;2022-10-16T07:01:04;96782.16;;;30.09;36.05
31595;BME280;18200;48.726;8.892;2022-10-16T07:05:05;96795.25;;;30.28;36.08
31595;BME280;18200;48.726;8.892;2022-10-16T07:09:08;96794.97;;;30.06;36.64
31595;BME280;18200;48.726;8.892;2022-10-16T07:13:09;96802.16;;;30.18;36.31
31595;BME280;18200;48.726;8.892;2022-10-16T07:17:13;96811.50;;;30.35;36.64
31595;BME280;18200;48.726;8.892;2022-10-16T07:21:15;96825.38;;;30.35;36.31
31595;BME280;18200;48.726;8.892;2022-10-16T07:25:16;96812.88;;;30.65;36.24
31595;BME280;18200;48.726;8.892;2022-10-16T07:29:19;96815.06;;;30.82;35.71
31595;BME280;18200;48.726;8.892;2022-10-16T07:33:20;96811.75;;;30.78;35.39
31595;BME280;18200;48.726;8.892;2022-10-16T07:37:21;96818.44;;;30.65;35.48
31595;BME280;18200;48.726;8.892;2022-10-16T07:41:22;96828.44;;;30.57;35.60
31595;BME280;18200;48.726;8.892;2022-10-16T07:45:22;96821.66;;;30.84;35.11
31595;BME280;18200;48.726;8.892;2022-10-16T07:49:23;96827.66;;;31.23;34.65
31595;BME280;18200;48.726;8.892;2022-10-16T07:53:23;96833.09;;;31.12;35.07
31595;BME280;18200;48.726;8.892;2022-10-16T07:57:23;96839.31;;;31.27;34.79
31595;BME280;18200;48.726;8.892;2022-10-16T08:01:24;96838.34;;;31.56;34.34
31595;BME280;18200;48.726;8.892;2022-10-16T08:05:24;96837.97;;;31.74;34.10
31595;BME280;18200;48.726;8.892;2022-10-16T08:09:25;96839.63;;;31.60;33.92
31595;BME280;18200;48.726;8.892;2022-10-16T08:13:25;96852.59;;;31.69;34.31
31595;BME280;18200;48.726;8.892;2022-10-16T08:17:26;96849.44;;;31.56;34.14
31595;BME280;18200;48.726;8.892;2022-10-16T08:21:26;96859.22;;;31.77;33.67
31595;BME280;18200;48.726;8.892;2022-10-16T08:25:28;96855.97;;;32.15;33.67
31595;BME280;18200;48.726;8.892;2022-10-16T08:29:28;96846.38;;;31.79;34.52
31595;BME280;18200;48.726;8.892;2022-10-16T08:33:29;96845.03;;;32.43;33.50
31595;BME280;18200;48.726;8.892;2022-10-16T08:37:30;96856.75;;;32.16;34.11
31595;BME280;18200;48.726;8.892;2022-10-16T08:45:42;96875.22;;;31.87;34.90
31595;BME280;18200;48.726;8.892;2022-10-16T08:50:02;96883.31;;;32.59;32.79
31595;BME280;18200;48.726;8.892;2022-10-16T08:54:30;96879.22;;;32.49;33.18
31595;BME280;18200;48.726;8.892;2022-10-16T08:58:34;96878.41;;;32.96;33.10
31595;BME280;18200;48.726;8.892;2022-10-16T09:02:38;96868.28;;;32.93;32.64
31595;BME280;18200;48.726;8.892;2022-10-16T09:06:52;96875.09;;;32.39;33.51
31595;BME280;18200;48.726;8.892;2022-10-16T09:11:06;96887.91;;;33.32;32.49
31595;BME280;18200;48.726;8.892;2022-10-16T09:15:27;96890.72;;;33.48;31.79
31595;BME280;18200;48.726;8.892;2022-10-16T09:19:38;96890.69;;;33.32;32.83
31595;BME280;18200;48.726;8.892;2022-10-16T09:23:42;96882.25;;;32.51;33.02
31595;BME280;18200;48.726;8.892;2022-10-16T09:27:46;96897.38;;;33.62;31.56
31595;BME280;18200;48.726;8.892;2022-10-16T09:31:47;96887.22;;;33.87;31.44
31595;BME280;18200;48.726;8.892;2022-10-16T09:35:53;96891.81;;;34.12;30.92
31595;BME280;18200;48.726;8.892;2022-10-16T09:39:54;96907.53;;;34.26;30.92
31595;BME280;18200;48.726;8.892;2022-10-16T09:43:57;96907.00;;;34.00;31.38
31595;BME280;18200;48.726;8.892;2022-10-16T09:48:01;96899.91;;;34.54;30.45
31595;BME280;18200;48.726;8.892;2022-10-16T09:52:14;96915.97;;;35.05;29.92
31595;BME280;18200;48.726;8.892;2022-10-16T09:56:30;96906.88;;;34.94;29.83
31595;BME280;18200;48.726;8.892;2022-10-16T10:00:32;96914.22;;;35.02;29.08
31595;BME280;18200;48.726;8.892;2022-10-16T10:04:42;96921.19;;;35.31;29.18
31595;BME280;18200;48.726;8.892;2022-10-16T10:13:02;96920.88;;;35.46;27.32
31595;BME280;18200;48.726;8.892;2022-10-16T10:21:13;96925.16;;;35.47;27.87
31595;BME280;18200;48.726;8.892;2022-10-16T10:25:23;96923.94;;;35.48;27.93
31595;BME280;18200;48.726;8.892;2022-10-16T10:29:53;96930.72;;;35.93;27.32
31595;BME280;18200;48.726;8.892;2022-10-16T10:43:01;96928.47;;;32.85;31.02
31595;BME280;18200;48.726;8.892;2022-10-16T10:51:22;96933.88;;;33.92;29.60
31595;BME280;18200;48.726;8.892;2022-10-16T11:08:34;96931.25;;;37.42;25.84
31595;BME280;18200;48.726;8.892;2022-10-16T11:12:41;96944.25;;;36.24;26.01
31595;BME280;18200;48.726;8.892;2022-10-16T11:16:56;96936.06;;;35.56;26.79
31595;BME280;18200;48.726;8.892;2022-10-16T11:21:03;96932.47;;;36.02;26.40
31595;BME280;18200;48.726;8.892;2022-10-16T11:25:24;96941.47;;;36.19;25.76
31595;BME280;18200;48.726;8.892;2022-10-16T11:29:29;96927.66;;;37.04;25.51
31595;BME280;18200;48.726;8.892;2022-10-16T11:33:43;96934.38;;;36.96;25.84
31595;BME280;18200;48.726;8.892;2022-10-16T11:37:46;96929.75;;;37.41;24.40
31595;BME280;18200;48.726;8.892;2022-10-16T11:41:54;96927.66;;;37.97;24.24
31595;BME280;18200;48.726;8.892;2022-10-16T11:45:59;96918.69;;;37.49;24.39
31595;BME280;18200;48.726;8.892;2022-10-16T11:50:33;96910.66;;;37.40;25.48
31595;BME280;18200;48.726;8.892;2022-10-16T12:07:09;96913.06;;;34.43;28.11
31595;BME280;18200;48.726;8.892;2022-10-16T12:11:36;96907.28;;;37.04;25.62
31595;BME280;18200;48.726;8.892;2022-10-16T12:15:36;96918.63;;;36.44;26.41
31595;BME280;18200;48.726;8.892;2022-10-16T12:19:37;96919.88;;;37.53;25.42
31595;BME280;18200;48.726;8.892;2022-10-16T12:23:46;96914.13;;;37.64;24.76
31595;BME280;18200;48.726;8.892;2022-10-16T12:27:54;96917.56;;;38.08;24.96
31595;BME280;18200;48.726;8.892;2022-10-16T12:31:55;96920.09;;;35.45;26.98
31595;BME280;18200;48.726;8.892;2022-10-16T12:35:57;96920.31;;;36.23;26.61
31595;BME280;18200;48.726;8.892;2022-10-16T12:39:59;96928.25;;;36.19;26.38
31595;BME280;18200;48.726;8.892;2022-10-16T12:44:00;96920.22;;;36.34;26.26
31595;BME280;18200;48.726;8.892;2022-10-16T12:48:04;96927.69;;;35.56;27.38
31595;BME280;18200;48.726;8.892;2022-10-16T13:01:36;96928.28;;;36.68;25.36
31595;BME280;18200;48.726;8.892;2022-10-16T13:10:30;96930.53;;;36.75;25.39
31595;BME280;18200;48.726;8.892;2022-10-16T13:23:40;96927.16;;;37.24;24.97
31595;BME280;18200;48.726;8.892;2022-10-16T13:27:54;96930.09;;;37.32;24.33
31595;BME280;18200;48.726;8.892;2022-10-16T13:32:08;96936.63;;;37.77;24.52
31595;BME280;18200;48.726;8.892;2022-10-16T13:36:20;96934.56;;;37.03;25.26
31595;BME280;18200;48.726;8.892;2022-10-16T13:40:23;96934.16;;;36.94;25.36
31595;BME280;18200;48.726;8.892;2022-10-16T13:44:24;96925.59;;;36.81;24.98
31595;BME280;18200;48.726;8.892;2022-10-16T13:48:25;96934.41;;;36.12;25.54
31595;BME280;18200;48.726;8.892;2022-10-16T13:52:26;96929.31;;;37.37;24.77
31595;BME280;18200;48.726;8.892;2022-10-16T13:56:29;96926.97;;;37.17;25.07
31595;BME280;18200;48.726;8.892;2022-10-16T14:00:30;96929.88;;;37.30;25.52
31595;BME280;18200;48.726;8.892;2022-10-16T14:04:32;96930.88;;;37.14;25.81
31595;BME280;18200;48.726;8.892;2022-10-16T14:08:33;96927.00;;;37.73;24.97
31595;BME280;18200;48.726;8.892;2022-10-16T14:12:34;96937.41;;;38.10;24.28
31595;BME280;18200;48.726;8.892;2022-10-16T14:16:34;96941.50;;;37.58;25.35
31595;BME280;18200;48.726;8.892;2022-10-16T14:20:34;96943.69;;;37.65;25.55
31595;BME280;18200;48.726;8.892;2022-10-16T14:24:35;96935.97;;;37.71;24.86
31595;BME280;18200;48.726;8.892;2022-10-16T14:28:37;96937.25;;;38.21;26.33
31595;BME280;18200;48.726;8.892;2022-10-16T14:32:40;96950.38;;;38.44;25.28
31595;BME280;18200;48.726;8.892;2022-10-16T14:36:41;96949.28;;;39.18;24.56
31595;BME280;18200;48.726;8.892;2022-10-16T14:40:47;96958.13;;;38.83;24.81
31595;BME280;18200;48.726;8.892;2022-10-16T14:44:48;96957.25;;;39.01;24.90
31595;BME280;18200;48.726;8.892;2022-10-16T14:48:59;96953.78;;;39.34;25.27
31595;BME280;18200;48.726;8.892;2022-10-16T14:53:00;96949.84;;;39.64;24.93
31595;BME280;18200;48.726;8.892;2022-10-16T14:57:01;96946.19;;;39.42;24.67
31595;BME280;18200;48.726;8.892;2022-10-16T15:01:01;96949.41;;;39.60;24.29
31595;BME280;18200;48.726;8.892;2022-10-16T15:05:12;96949.00;;;39.56;24.71
31595;BME280;18200;48.726;8.892;2022-10-16T15:09:13;96944.66;;;39.54;24.49
31595;BME280;18200;48.726;8.892;2022-10-16T15:13:13;96945.03;;;40.26;24.12
31595;BME280;18200;48.726;8.892;2022-10-16T15:17:14;96951.50;;;40.55;23.29
31595;BME280;18200;48.726;8.892;2022-10-16T15:21:23;96958.25;;;40.52;22.85
31595;BME280;18200;48.726;8.892;2022-10-16T15:29:39;96955.84;;;40.35;22.81
31595;BME280;18200;48.726;8.892;2022-10-16T15:33:40;96961.41;;;39.94;23.75
31595;BME280;18200;48.726;8.892;2022-10-16T15:37:40;96959.41;;;39.08;24.14
31595;BME280;18200;48.726;8.892;2022-10-16T15:41:41;96954.00;;;39.10;24.31
31595;BME280;18200;48.726;8.892;2022-10-16T15:45:42;96966.59;;;40.23;23.64
31595;BME280;18200;48.726;8.892;2022-10-16T15:49:42;96966.66;;;39.04;25.37
31595;BME280;18200;48.726;8.892;2022-10-16T15:53:42;96971.00;;;38.47;26.42
31595;BME280;18200;48.726;8.892;2022-10-16T15:57:43;96969.16;;;37.67;27.46
31595;BME280;18200;48.726;8.892;2022-10-16T16:01:43;96960.81;;;37.62;27.26
31595;BME280;18200;48.726;8.892;2022-10-16T16:05:44;96964.22;;;36.93;28.45
31595;BME280;18200;48.726;8.892;2022-10-16T16:09:44;96961.22;;;36.86;27.97
31595;BME280;18200;48.726;8.892;2022-10-16T16:13:45;96958.38;;;35.09;31.34
31595;BME280;18200;48.726;8.892;2022-10-16T16:17:46;96961.53;;;35.88;29.93
31595;BME280;18200;48.726;8.892;2022-10-16T16:21:47;96964.50;;;35.60;30.50
31595;BME280;18200;48.726;8.892;2022-10-16T16:26:06;96965.56;;;35.98;30.18
31595;BME280;18200;48.726;8.892;2022-10-16T16:30:07;96965.47;;;36.09;30.17
31595;BME280;18200;48.726;8.892;2022-10-16T16:34:08;96971.00;;;35.79;30.36
31595;BME280;18200;48.726;8.892;2022-10-16T16:38:08;96971.94;;;35.52;30.79
31595;BME280;18200;48.726;8.892;2022-10-16T16:42:09;96978.88;;;35.29;31.54
31595;BME280;18200;48.726;8.892;2022-10-16T16:46:10;96987.72;;;35.44;30.80
31595;BME280;18200;48.726;8.892;2022-10-16T16:50:10;96987.94;;;35.46;30.87
31595;BME280;18200;48.726;8.892;2022-10-16T16:54:11;96992.25;;;34.56;32.57
31595;BME280;18200;48.726;8.892;2022-10-16T16:58:12;97000.84;;;34.03;33.83
31595;BME280;18200;48.726;8.892;2022-10-16T17:02:13;96995.09;;;33.47;34.31
31595;BME280;18200;48.726;8.892;2022-10-16T17:06:13;97002.88;;;34.08;33.45
31595;BME280;18200;48.726;8.892;2022-10-16T17:10:16;97004.41;;;34.09;32.61
31595;BME280;18200;48.726;8.892;2022-10-16T17:14:17;97015.59;;;34.20;33.02
31595;BME280;18200;48.726;8.892;2022-10-16T17:18:18;97020.63;;;34.05;32.93
31595;BME280;18200;48.726;8.892;2022-10-16T17:22:19;97023.34;;;33.83;33.30
31595;BME280;18200;48.726;8.892;2022-10-16T17:26:19;97027.66;;;33.95;32.64
31595;BME280;18200;48.726;8.892;2022-10-16T17:30:20;97023.16;;;34.03;32.70
31595;BME280;18200;48.726;8.892;2022-10-16T17:34:20;97026.56;;;33.53;33.18
31595;BME280;18200;48.726;8.892;2022-10-16T17:38:20;97036.00;;;33.19;33.41
31595;BME280;18200;48.726;8.892;2022-10-16T17:42:22;97032.97;;;33.17;33.31
31595;BME280;18200;48.726;8.892;2022-10-16T17:46:22;97041.69;;;32.05;35.02
31595;BME280;18200;48.726;8.892;2022-10-16T17:50:25;97037.25;;;32.76;34.20
31595;BME280;18200;48.726;8.892;2022-10-16T17:54:26;97045.28;;;32.11;34.86
31595;BME280;18200;48.726;8.892;2022-10-16T17:58:26;97044.41;;;32.51;34.08
31595;BME280;18200;48.726;8.892;2022-10-16T18:02:28;97052.75;;;32.26;34.25
31595;BME280;18200;48.726;8.892;2022-10-16T18:06:30;97059.38;;;32.02;34.64
31595;BME280;18200;48.726;8.892;2022-10-16T18:10:30;97057.41;;;32.08;34.41
31595;BME280;18200;48.726;8.892;2022-10-16T18:14:31;97060.88;;;32.03;34.75
31595;BME280;18200;48.726;8.892;2022-10-16T18:18:31;97063.38;;;32.01;34.60
31595;BME280;18200;48.726;8.892;2022-10-16T18:22:33;97067.19;;;32.30;34.05
31595;BME280;18200;48.726;8.892;2022-10-16T18:26:35;97074.91;;;32.14;34.47
31595;BME280;18200;48.726;8.892;2022-10-16T18:30:35;97081.81;;;32.25;33.97
31595;BME280;18200;48.726;8.892;2022-10-16T18:34:35;97087.28;;;32.13;34.46
31595;BME280;18200;48.726;8.892;2022-10-16T18:38:36;97093.16;;;31.95;34.78
31595;BME280;18200;48.726;8.892;2022-10-16T18:42:37;97093.25;;;31.86;34.46
31595;BME280;18200;48.726;8.892;2022-10-16T18:46:37;97082.66;;;31.65;34.55
31595;BME280;18200;48.726;8.892;2022-10-16T18:50:37;97093.16;;;31.55;34.53
31595;BME280;18200;48.726;8.892;2022-10-16T18:54:41;97088.69;;;31.63;34.94
31595;BME280;18200;48.726;8.892;2022-10-16T18:58:43;97096.81;;;31.12;34.84
31595;BME280;18200;48.726;8.892;2022-10-16T19:02:44;97097.25;;;31.05;35.50
31595;BME280;18200;48.726;8.892;2022-10-16T19:06:46;97099.22;;;31.19;35.51
31595;BME280;18200;48.726;8.892;2022-10-16T19:10:47;97101.81;;;31.08;35.06
31595;BME280;18200;48.726;8.892;2022-10-16T19:14:48;97108.16;;;31.28;35.07
31595;BME280;18200;48.726;8.892;2022-10-16T19:18:50;97111.94;;;30.32;35.97
31595;BME280;18200;48.726;8.892;2022-10-16T19:22:51;97122.22;;;30.76;36.36
31595;BME280;18200;48.726;8.892;2022-10-16T19:26:57;97113.84;;;30.70;35.15
31595;BME280;18200;48.726;8.892;2022-10-16T19:31:03;97109.03;;;30.41;35.82
31595;BME280;18200;48.726;8.892;2022-10-16T19:35:05;97116.91;;;29.66;36.63
31595;BME280;18200;48.726;8.892;2022-10-16T19:39:13;97120.28;;;29.47;37.48
31595;BME280;18200;48.726;8.892;2022-10-16T19:43:14;97121.69;;;29.66;37.23
31595;BME280;18200;48.726;8.892;2022-10-16T19:47:14;97124.56;;;29.95;37.03
31595;BME280;18200;48.726;8.892;2022-10-16T19:51:17;97133.88;;;30.21;36.35
31595;BME280;18200;48.726;8.892;2022-10-16T19:55:18;97137.31;;;30.16;35.65
31595;BME280;18200;48.726;8.892;2022-10-16T19:59:19;97133.69;;;29.63;36.65
31595;BME280;18200;48.726;8.892;2022-10-16T20:03:19;97143.69;;;29.04;37.79
31595;BME280;18200;48.726;8.892;2022-10-16T20:07:20;97139.53;;;29.18;37.77
31595;BME280;18200;48.726;8.892;2022-10-16T20:11:24;97144.06;;;29.30;37.47
31595;BME280;18200;48.726;8.892;2022-10-16T20:15:25;97155.25;;;29.02;37.23
31595;BME280;18200;48.726;8.892;2022-10-16T20:19:26;97154.72;;;28.71;37.89
31595;BME280;18200;48.726;8.892;2022-10-16T20:23:26;97165.81;;;28.44;39.09
31595;BME280;18200;48.726;8.892;2022-10-16T20:27:26;97156.03;;;28.94;38.22
31595;BME280;18200;48.726;8.892;2022-10-16T20:31:29;97166.94;;;28.97;38.15
31595;BME280;18200;48.726;8.892;2022-10-16T20:35:38;97179.94;;;28.64;38.08
31595;BME280;18200;48.726;8.892;2022-10-16T20:39:39;97178.91;;;28.94;37.03
31595;BME280;18200;48.726;8.892;2022-10-16T20:43:42;97188.47;;;28.93;37.34
31595;BME280;18200;48.726;8.892;2022-10-16T20:47:42;97194.34;;;28.77;37.89
31595;BME280;18200;48.726;8.892;2022-10-16T20:51:43;97205.44;;;28.50;37.35
31595;BME280;18200;48.726;8.892;2022-10-16T20:55:44;97204.44;;;27.23;39.71
31595;BME280;18200;48.726;8.892;2022-10-16T20:59:45;97216.19;;;28.66;38.32
31595;BME280;18200;48.726;8.892;2022-10-16T21:03:59;97216.09;;;27.66;39.56
31595;BME280;18200;48.726;8.892;2022-10-16T21:08:00;97225.31;;;27.73;39.67
31595;BME280;18200;48.726;8.892;2022-10-16T21:12:01;97220.16;;;26.39;41.52
31595;BME280;18200;48.726;8.892;2022-10-16T21:16:02;97215.44;;;26.83;41.26
31595;BME280;18200;48.726;8.892;2022-10-16T21:20:02;97217.34;;;27.75;39.04
31595;BME280;18200;48.726;8.892;2022-10-16T21:24:03;97223.69;;;28.11;38.54
31595;BME280;18200;48.726;8.892;2022-10-16T21:28:04;97227.56;;;27.16;40.23
31595;BME280;18200;48.726;8.892;2022-10-16T21:32:04;97225.09;;;27.98;38.52
31595;BME280;18200;48.726;8.892;2022-10-16T21:36:19;97224.19;;;28.19;37.97
31595;BME280;18200;48.726;8.892;2022-10-16T21:40:20;97216.78;;;28.43;37.76
31595;BME280;18200;48.726;8.892;2022-10-16T21:44:20;97218.66;;;28.28;38.33
31595;BME280;18200;48.726;8.892;2022-10-16T21:48:21;97225.72;;;28.38;37.34
31595;BME280;18200;48.726;8.892;2022-10-16T21:52:21;97219.88;;;28.27;37.78
31595;BME280;18200;48.726;8.892;2022-10-16T21:56:21;97216.66;;;28.47;36.82
31595;BME280;18200;48.726;8.892;2022-10-16T22:00:22;97220.78;;;28.24;36.75
31595;BME280;18200;48.726;8.892;2022-10-16T22:04:23;97222.66;;;28.09;37.98
31595;BME280;18200;48.726;8.892;2022-10-16T22:08:23;97214.03;;;28.07;38.28
31595;BME280;18200;48.726;8.892;2022-10-16T22:12:23;97215.03;;;26.72;39.99
31595;BME280;18200;48.726;8.892;2022-10-16T22:16:25;97220.28;;;27.80;38.14
31595;BME280;18200;48.726;8.892;2022-10-16T22:20:26;97226.66;;;27.59;39.20
31595;BME280;18200;48.726;8.892;2022-10-16T22:24:26;97224.56;;;27.72;38.70
31595;BME280;18200;48.726;8.892;2022-10-16T22:28:27;97229.03;;;27.79;37.98
31595;BME280;18200;48.726;8.892;2022-10-16T22:32:27;97230.00;;;28.12;37.72
31595;BME280;18200;48.726;8.892;2022-10-16T22:36:28;97234.00;;;28.11;37.78
31595;BME280;18200;48.726;8.892;2022-10-16T22:40:28;97233.31;;;27.71;38.08
31595;BME280;18200;48.726;8.892;2022-10-16T22:44:29;97228.72;;;27.06;38.93